Barnet, United Kingdom
Current Conditions -  °F | °C
As of 12:50 PM on Wednesday 22 Oct 2014 (Local Time) from EGWU Reporting Station
Broken Clouds Broken Clouds  
Wind Chill: 55°   Ceiling: 16000
Heat Index: 55°   Visibility: 6mi
Dew Point: 41°   Wind: 14mph
Humidity: 58%   Direction: 300°WNW
Pressure: 30.27"   Gusts: NA
Location:  51.65°N, 0.2°W
Report Text: EGWU 221150Z 30012KT 9999 FEW035 SCT100 BKN160 13/05 Q1025 NOSIG
Loading
Personal Weather Stations






























Interactive Weather Map
Tropical Storm Tracking
New forecast layout! Learn more

10-Day Weather Forecast

Advertisements
Track Severe Weather on mobile